Time;durP1;ratioP1;P1;durP2;ratioP2;P2;SDS_P1;SDS_P2;PMS_P1;PMS_P2;Temp;Humidity;BMP_temperature;BMP_pressure;BME280_temperature;BME280_humidity;BME280_pressure;Samples;Min_cycle;Max_cycle;Signal;HPM_P1;HPM_P2
2022/03/04 00:01:33;;;;;;;25.50;15.60;;;3.60;84.70;;;;;;4960879;28;20034;-85
2022/03/04 00:04:00;;;;;;;25.73;15.33;;;3.50;84.90;;;;;;4975815;28;20470;-85
2022/03/04 00:06:27;;;;;;;24.70;14.00;;;3.50;85.20;;;;;;4959592;28;20049;-84
2022/03/04 00:09:06;;;;;;;22.73;13.70;;;3.50;85.50;;;;;;4971066;28;20042;-84
2022/03/04 00:11:33;;;;;;;25.80;14.20;;;3.40;85.80;;;;;;4988165;28;20132;-84
2022/03/04 00:14:03;;;;;;;28.87;15.57;;;3.40;86.00;;;;;;4973165;28;20038;-84
2022/03/04 00:16:33;;;;;;;28.37;16.60;;;3.40;86.10;;;;;;4960178;28;20471;-84
2022/03/04 00:19:10;;;;;;;23.43;14.27;;;3.30;86.70;;;;;;4956222;28;20417;-84
2022/03/04 00:21:50;;;;;;;26.13;15.00;;;3.30;87.50;;;;;;4976826;28;20030;-85
2022/03/04 00:24:21;;;;;;;27.13;16.20;;;3.30;87.50;;;;;;4974035;28;20034;-85
2022/03/04 00:26:51;;;;;;;27.03;17.10;;;3.30;87.60;;;;;;4975086;28;20607;-83
2022/03/04 00:29:18;;;;;;;26.57;16.33;;;3.20;88.00;;;;;;4959393;28;20041;-83
2022/03/04 00:31:45;;;;;;;26.13;15.57;;;3.30;88.40;;;;;;4960259;28;20039;-84
2022/03/04 00:34:11;;;;;;;27.30;15.13;;;3.20;88.50;;;;;;4962818;28;20401;-83
2022/03/04 00:36:39;;;;;;;24.77;13.90;;;3.20;88.50;;;;;;4960504;28;20052;-84
2022/03/04 00:39:09;;;;;;;26.77;15.40;;;3.10;88.60;;;;;;4971979;28;20605;-84
2022/03/04 00:41:36;;;;;;;25.53;15.07;;;3.20;89.10;;;;;;4968004;28;20109;-84
2022/03/04 00:44:03;;;;;;;26.23;14.87;;;3.10;89.40;;;;;;4973102;28;20033;-84
2022/03/04 00:46:29;;;;;;;24.63;14.30;;;3.10;89.30;;;;;;4949001;28;20054;-84
2022/03/04 00:48:56;;;;;;;22.70;13.80;;;3.00;90.00;;;;;;4952802;28;20057;-84
2022/03/04 00:51:22;;;;;;;28.03;15.30;;;3.00;90.00;;;;;;4964672;28;20563;-84
2022/03/04 00:53:49;;;;;;;28.23;15.00;;;3.00;90.10;;;;;;4946629;28;20053;-84
2022/03/04 00:56:16;;;;;;;23.60;14.13;;;3.00;90.30;;;;;;4974660;28;20478;-84
2022/03/04 00:58:45;;;;;;;28.77;16.13;;;3.00;90.30;;;;;;4975217;28;20020;-83
2022/03/04 01:01:11;;;;;;;24.23;14.47;;;3.00;90.50;;;;;;4962345;28;20061;-84
2022/03/04 01:03:38;;;;;;;22.33;13.03;;;3.00;90.50;;;;;;4959812;28;20045;-84
2022/03/04 01:06:06;;;;;;;24.40;13.23;;;3.00;90.60;;;;;;4959982;28;20050;-83
2022/03/04 01:08:34;;;;;;;19.33;10.73;;;2.90;90.60;;;;;;4947725;28;20047;-84
2022/03/04 01:11:00;;;;;;;22.87;14.20;;;2.90;90.60;;;;;;4954940;28;20034;-84
2022/03/04 01:13:27;;;;;;;23.87;12.97;;;2.90;90.70;;;;;;4964810;28;20039;-84
2022/03/04 01:15:54;;;;;;;26.83;14.40;;;2.80;90.80;;;;;;4950848;28;20051;-84
2022/03/04 01:18:21;;;;;;;22.70;12.80;;;2.80;91.00;;;;;;4985513;28;20036;-84
2022/03/04 01:20:48;;;;;;;22.23;13.20;;;2.80;91.10;;;;;;4963134;28;20027;-84
2022/03/04 01:23:15;;;;;;;28.80;15.63;;;2.70;91.20;;;;;;4982430;28;20035;-82
2022/03/04 01:25:41;;;;;;;20.13;11.63;;;2.70;91.30;;;;;;4962477;28;20029;-83
2022/03/04 01:28:08;;;;;;;23.43;12.27;;;2.70;91.40;;;;;;4973285;28;20038;-84
2022/03/04 01:30:34;;;;;;;24.00;13.30;;;2.60;91.50;;;;;;4940029;28;20065;-84
2022/03/04 01:33:01;;;;;;;24.90;14.63;;;2.70;91.60;;;;;;4971779;28;20042;-83
2022/03/04 01:35:30;;;;;;;28.17;15.83;;;2.60;91.80;;;;;;4942509;28;20054;-83
2022/03/04 01:37:57;;;;;;;21.03;12.67;;;2.60;92.00;;;;;;4967420;28;20135;-83
2022/03/04 01:40:23;;;;;;;25.10;12.90;;;2.60;92.10;;;;;;4923308;28;20027;-83
2022/03/04 01:42:50;;;;;;;23.83;14.00;;;2.60;92.20;;;;;;4953267;28;20031;-84
2022/03/04 01:45:17;;;;;;;23.70;13.30;;;2.60;92.40;;;;;;4919245;28;20470;-84
2022/03/04 01:47:43;;;;;;;25.40;13.20;;;2.60;92.50;;;;;;4948492;28;20035;-83
2022/03/04 01:50:10;;;;;;;19.77;11.30;;;2.60;92.60;;;;;;4932924;28;20132;-84
2022/03/04 01:52:37;;;;;;;22.13;12.33;;;2.60;92.60;;;;;;4949701;28;20355;-83
2022/03/04 01:55:05;;;;;;;22.23;12.33;;;2.50;92.60;;;;;;4949826;28;20494;-83
2022/03/04 01:57:32;;;;;;;20.97;11.50;;;2.50;92.70;;;;;;4932463;28;22924;-84
2022/03/04 01:59:59;;;;;;;22.07;11.40;;;2.50;92.70;;;;;;4921681;28;20300;-83
2022/03/04 02:02:26;;;;;;;21.80;12.23;;;2.40;92.90;;;;;;4936001;28;20027;-83
2022/03/04 02:04:53;;;;;;;27.63;14.50;;;2.40;93.00;;;;;;4954106;28;20042;-83
2022/03/04 02:07:19;;;;;;;21.40;12.20;;;2.40;93.30;;;;;;4936642;28;20581;-82
2022/03/04 02:09:46;;;;;;;25.87;13.73;;;2.40;93.30;;;;;;4939244;28;20035;-83
2022/03/04 02:12:12;;;;;;;22.70;12.07;;;2.40;93.30;;;;;;4956536;28;20071;-82
2022/03/04 02:14:39;;;;;;;20.63;11.73;;;2.30;93.40;;;;;;4924457;28;20438;-83
2022/03/04 02:17:05;;;;;;;24.17;13.20;;;2.30;93.50;;;;;;4939866;28;20030;-83
2022/03/04 02:19:32;;;;;;;23.27;13.00;;;2.30;93.70;;;;;;4952473;28;20027;-83
2022/03/04 02:22:00;;;;;;;19.87;11.20;;;2.30;93.70;;;;;;4925472;28;20051;-83
2022/03/04 02:24:29;;;;;;;21.77;11.90;;;2.30;93.90;;;;;;4954026;28;20043;-83
2022/03/04 02:26:58;;;;;;;25.73;12.30;;;2.30;94.00;;;;;;4950235;28;20051;-83
2022/03/04 02:29:25;;;;;;;24.93;12.07;;;2.20;94.20;;;;;;4935699;28;20046;-83
2022/03/04 02:31:52;;;;;;;21.97;12.30;;;2.20;94.30;;;;;;4940364;28;20039;-83
2022/03/04 02:34:23;;;;;;;18.80;10.27;;;2.20;94.30;;;;;;4972760;28;20394;-82
2022/03/04 02:36:52;;;;;;;27.37;14.60;;;2.20;94.40;;;;;;4955031;28;20050;-83
2022/03/04 02:39:23;;;;;;;21.37;11.40;;;2.10;94.50;;;;;;4964542;28;20034;-83
2022/03/04 02:41:57;;;;;;;21.77;12.73;;;2.10;94.70;;;;;;4986359;28;20034;-83
2022/03/04 02:44:24;;;;;;;24.20;13.67;;;2.10;95.00;;;;;;4969266;28;20034;-84
2022/03/04 02:46:58;;;;;;;23.70;13.40;;;2.20;95.40;;;;;;4972768;28;20046;-82
2022/03/04 02:49:27;;;;;;;22.80;13.27;;;2.20;95.60;;;;;;4942605;28;20041;-81
2022/03/04 02:51:56;;;;;;;25.43;14.40;;;2.20;95.60;;;;;;4972318;28;20031;-82
2022/03/04 02:54:28;;;;;;;22.95;12.23;;;2.10;95.60;;;;;;4971288;28;20046;-81
2022/03/04 02:56:56;;;;;;;27.13;12.93;;;2.10;95.70;;;;;;4952842;28;20088;-82
2022/03/04 02:59:24;;;;;;;25.80;13.33;;;2.00;95.70;;;;;;4964105;28;20043;-80
2022/03/04 03:01:52;;;;;;;19.73;10.23;;;2.00;95.90;;;;;;4939073;28;20038;-81
2022/03/04 03:04:26;;;;;;;22.30;11.77;;;1.90;96.20;;;;;;4942669;28;20065;-81
2022/03/04 03:06:59;;;;;;;26.13;12.80;;;1.90;96.00;;;;;;4985986;28;20042;-81
2022/03/04 03:09:26;;;;;;;23.00;13.53;;;1.90;96.30;;;;;;4952822;28;20047;-81
2022/03/04 03:11:59;;;;;;;21.33;11.50;;;1.90;96.50;;;;;;4954476;28;20063;-80
2022/03/04 03:14:28;;;;;;;19.10;10.53;;;1.90;96.50;;;;;;4967196;28;20038;-81
2022/03/04 03:16:54;;;;;;;27.23;15.77;;;1.80;96.60;;;;;;4984748;28;20034;-81
2022/03/04 03:19:27;;;;;;;24.70;13.68;;;1.80;96.80;;;;;;4953692;28;20031;-80
2022/03/04 03:21:55;;;;;;;22.63;12.90;;;1.80;97.10;;;;;;4961073;28;20490;-80
2022/03/04 03:24:25;;;;;;;24.33;13.47;;;1.70;97.30;;;;;;4973488;28;20034;-81
2022/03/04 03:26:56;;;;;;;24.65;12.77;;;1.70;97.40;;;;;;4988711;28;20482;-81
2022/03/04 03:29:25;;;;;;;19.27;11.40;;;1.70;97.60;;;;;;4981760;28;20393;-81
2022/03/04 03:31:52;;;;;;;22.73;12.60;;;1.70;97.70;;;;;;4979005;28;20039;-81
2022/03/04 03:34:18;;;;;;;21.77;11.97;;;1.60;97.80;;;;;;4971270;28;20031;-82
2022/03/04 03:36:45;;;;;;;22.70;11.63;;;1.60;98.00;;;;;;4974143;28;20045;-81
2022/03/04 03:39:12;;;;;;;19.90;10.23;;;1.60;98.00;;;;;;4962186;28;20106;-81
2022/03/04 03:41:39;;;;;;;24.20;12.33;;;1.50;98.00;;;;;;4948901;28;20042;-81
2022/03/04 03:44:06;;;;;;;23.27;11.53;;;1.50;98.20;;;;;;4962686;28;20046;-82
2022/03/04 03:46:33;;;;;;;26.10;14.77;;;1.50;98.40;;;;;;4964082;28;20037;-81
2022/03/04 03:49:00;;;;;;;20.30;11.07;;;1.40;98.50;;;;;;4959525;28;20038;-82
2022/03/04 03:51:26;;;;;;;19.97;12.20;;;1.40;98.60;;;;;;4957886;28;20030;-82
2022/03/04 03:53:55;;;;;;;20.80;11.37;;;1.40;98.70;;;;;;4970169;28;20034;-81
2022/03/04 03:56:21;;;;;;;21.70;10.57;;;1.40;98.90;;;;;;4960021;28;20034;-80
2022/03/04 03:58:48;;;;;;;17.50;9.07;;;1.30;98.90;;;;;;4956864;28;20042;-81
2022/03/04 04:01:15;;;;;;;27.13;13.63;;;1.30;99.00;;;;;;4948212;28;20037;-81
2022/03/04 04:03:41;;;;;;;19.60;11.07;;;1.30;99.20;;;;;;4961042;28;20042;-81
2022/03/04 04:06:08;;;;;;;21.90;12.03;;;1.30;99.30;;;;;;4943309;28;20478;-82
2022/03/04 04:08:35;;;;;;;26.80;13.70;;;1.30;99.50;;;;;;4958145;28;20520;-81
2022/03/04 04:11:02;;;;;;;22.93;13.03;;;1.20;99.90;;;;;;4959566;28;20038;-82
2022/03/04 04:13:28;;;;;;;21.87;12.47;;;1.20;99.90;;;;;;4990166;28;20061;-81
2022/03/04 04:15:55;;;;;;;24.93;13.20;;;1.30;99.90;;;;;;4944509;28;20037;-82
2022/03/04 04:18:22;;;;;;;21.37;11.77;;;1.20;99.90;;;;;;4990187;28;20034;-81
2022/03/04 04:20:49;;;;;;;22.63;13.43;;;1.30;99.90;;;;;;4960036;28;20474;-81
2022/03/04 04:23:19;;;;;;;25.70;14.03;;;1.20;99.90;;;;;;4959032;28;20046;-81
2022/03/04 04:25:45;;;;;;;27.30;15.30;;;1.20;99.90;;;;;;4963049;28;20026;-82
2022/03/04 04:28:12;;;;;;;23.60;13.60;;;1.20;99.90;;;;;;4975966;28;20038;-81
2022/03/04 04:30:38;;;;;;;27.27;15.57;;;1.10;99.90;;;;;;4962178;28;20069;-82
2022/03/04 04:33:07;;;;;;;26.17;14.60;;;1.10;99.90;;;;;;4963953;28;20042;-81
2022/03/04 04:35:38;;;;;;;33.33;15.63;;;1.10;99.90;;;;;;4994969;28;20030;-81
2022/03/04 04:38:08;;;;;;;25.70;13.87;;;1.10;99.90;;;;;;4981369;28;20044;-82
2022/03/04 04:40:35;;;;;;;27.53;16.37;;;1.10;99.90;;;;;;4978629;28;20086;-81
2022/03/04 04:43:13;;;;;;;24.10;14.37;;;1.10;99.90;;;;;;5004150;28;20025;-83
2022/03/04 04:45:40;;;;;;;27.87;13.93;;;1.10;99.90;;;;;;4963542;28;20030;-82
2022/03/04 04:48:08;;;;;;;26.73;14.40;;;1.00;99.90;;;;;;4941936;28;20053;-83
2022/03/04 04:50:37;;;;;;;29.53;16.03;;;1.00;99.90;;;;;;4969611;28;20054;-82
2022/03/04 04:53:09;;;;;;;27.07;15.47;;;1.00;99.90;;;;;;4961120;28;20042;-83
2022/03/04 04:55:35;;;;;;;25.07;14.40;;;1.00;99.90;;;;;;4977723;28;20037;-83
2022/03/04 04:58:02;;;;;;;26.87;14.40;;;1.00;99.90;;;;;;4958439;28;20030;-83
2022/03/04 05:00:29;;;;;;;24.33;13.10;;;1.00;99.90;;;;;;4977655;28;20026;-83
2022/03/04 05:02:57;;;;;;;27.10;15.93;;;0.90;99.90;;;;;;4958923;28;20475;-84
2022/03/04 05:05:26;;;;;;;29.57;16.27;;;0.90;99.90;;;;;;4970433;28;20045;-84
2022/03/04 05:07:59;;;;;;;31.43;18.07;;;0.90;99.90;;;;;;4972664;28;20051;-83
2022/03/04 05:10:26;;;;;;;28.17;14.40;;;0.90;99.90;;;;;;4973377;28;20045;-84
2022/03/04 05:12:55;;;;;;;26.60;14.17;;;1.00;99.90;;;;;;4988402;28;20057;-84
2022/03/04 05:15:27;;;;;;;24.53;14.53;;;0.90;99.90;;;;;;4987214;28;20034;-84
2022/03/04 05:17:56;;;;;;;30.33;16.40;;;0.90;99.90;;;;;;4969981;28;20033;-85
2022/03/04 05:20:24;;;;;;;27.67;15.07;;;0.90;99.90;;;;;;4955543;28;20026;-84
2022/03/04 05:22:54;;;;;;;29.13;14.80;;;0.90;99.90;;;;;;4957888;28;20038;-84
2022/03/04 05:25:27;;;;;;;28.70;14.90;;;0.90;99.90;;;;;;4972319;28;20053;-83
2022/03/04 05:27:57;;;;;;;;;;;0.80;99.90;;;;;;4958391;28;20038;-84
2022/03/04 05:33:47;;;;;;;26.73;14.60;;;0.80;99.90;;;;;;4985954;28;20046;-85
2022/03/04 05:36:14;;;;;;;27.87;15.00;;;0.70;99.90;;;;;;4971614;28;20049;-84
2022/03/04 05:38:40;;;;;;;28.97;14.83;;;0.70;99.90;;;;;;4950401;28;20030;-84
2022/03/04 05:41:07;;;;;;;25.63;15.00;;;0.70;99.90;;;;;;4969961;28;22569;-84
2022/03/04 05:43:34;;;;;;;30.30;15.93;;;0.70;99.90;;;;;;4972564;28;20029;-85
2022/03/04 05:46:01;;;;;;;25.93;13.63;;;0.70;99.90;;;;;;4957090;28;20042;-84
2022/03/04 05:48:27;;;;;;;31.53;17.20;;;0.70;99.90;;;;;;4952667;28;20038;-84
2022/03/04 05:50:54;;;;;;;30.17;16.27;;;0.70;99.90;;;;;;4940035;28;20046;-84
2022/03/04 05:53:27;;;;;;;23.93;12.73;;;0.70;99.90;;;;;;4940402;28;20038;-84
2022/03/04 05:55:56;;;;;;;26.40;13.38;;;0.70;99.90;;;;;;4944518;28;20038;-84
2022/03/04 05:58:26;;;;;;;22.13;11.30;;;0.70;99.90;;;;;;4968261;28;20046;-84
2022/03/04 06:00:53;;;;;;;23.80;12.80;;;0.60;99.90;;;;;;4946329;28;20066;-86
2022/03/04 06:03:23;;;;;;;23.17;12.90;;;0.60;99.90;;;;;;4949701;28;20031;-85
2022/03/04 06:05:49;;;;;;;27.13;13.70;;;0.50;99.90;;;;;;4955798;28;20037;-85
2022/03/04 06:08:16;;;;;;;23.87;13.70;;;0.50;99.90;;;;;;4968449;28;20038;-84
2022/03/04 06:10:43;;;;;;;25.83;13.77;;;0.50;99.90;;;;;;4954079;28;20042;-85
2022/03/04 06:13:37;;;;;;;27.30;15.27;;;0.50;99.90;;;;;;4944640;28;20031;-85
2022/03/04 06:16:04;;;;;;;28.27;15.50;;;0.50;99.90;;;;;;4963197;28;20046;-84
2022/03/04 06:18:31;;;;;;;22.63;13.13;;;0.50;99.90;;;;;;4986739;28;20453;-85
2022/03/04 06:20:58;;;;;;;24.73;14.00;;;0.50;99.90;;;;;;4956143;28;20038;-85
2022/03/04 06:23:25;;;;;;;30.90;15.57;;;0.50;99.90;;;;;;4970600;28;20386;-84
2022/03/04 06:25:52;;;;;;;27.13;14.27;;;0.50;99.90;;;;;;4940517;28;20033;-87
2022/03/04 06:28:27;;;;;;;28.30;13.63;;;0.40;99.90;;;;;;4952061;28;20053;-86
2022/03/04 06:30:55;;;;;;;27.27;13.73;;;0.40;99.90;;;;;;4968493;28;20046;-82
2022/03/04 06:33:30;;;;;;;31.20;15.60;;;0.40;99.90;;;;;;4968133;28;20026;-81
2022/03/04 06:36:00;;;;;;;28.93;14.03;;;0.40;99.90;;;;;;4955196;28;20063;-82
2022/03/04 06:38:27;;;;;;;27.13;13.60;;;0.40;99.90;;;;;;4958001;28;20045;-82
2022/03/04 06:40:54;;;;;;;32.73;16.13;;;0.50;99.90;;;;;;4956541;28;20053;-82
2022/03/04 06:43:20;;;;;;;28.73;16.77;;;0.60;99.90;;;;;;4953142;28;20034;-80
2022/03/04 06:45:47;;;;;;;29.73;14.60;;;0.60;99.90;;;;;;4940063;28;20547;-81
2022/03/04 06:48:15;;;;;;;26.57;13.80;;;0.70;99.90;;;;;;4987395;28;20027;-83
2022/03/04 06:50:41;;;;;;;30.87;16.87;;;0.70;99.90;;;;;;4953688;28;20053;-80
2022/03/04 06:53:08;;;;;;;24.90;14.80;;;0.80;99.90;;;;;;4973607;28;20034;-81
2022/03/04 06:55:35;;;;;;;26.63;14.60;;;0.90;99.90;;;;;;4956490;28;20038;-81
2022/03/04 06:58:01;;;;;;;33.07;15.70;;;0.90;99.90;;;;;;4957902;28;20038;-80
2022/03/04 07:00:28;;;;;;;30.57;16.90;;;1.00;99.90;;;;;;4940469;28;20065;-80
2022/03/04 07:02:54;;;;;;;30.53;16.13;;;1.10;99.90;;;;;;4985964;28;20037;-81
2022/03/04 07:05:22;;;;;;;32.63;18.40;;;1.10;99.90;;;;;;4967244;28;20342;-81
2022/03/04 07:07:50;;;;;;;29.97;15.73;;;1.20;99.90;;;;;;4962830;28;20042;-81
2022/03/04 07:10:17;;;;;;;31.23;16.80;;;1.30;99.90;;;;;;4942233;28;20030;-81
2022/03/04 07:12:45;;;;;;;31.23;17.07;;;1.30;99.90;;;;;;4976114;28;20025;-81
2022/03/04 07:15:12;;;;;;;29.53;16.90;;;1.40;99.90;;;;;;4972682;28;20039;-80
2022/03/04 07:17:39;;;;;;;29.47;16.17;;;1.50;99.90;;;;;;4956854;28;20045;-79
2022/03/04 07:20:07;;;;;;;24.93;13.90;;;1.50;99.90;;;;;;4958130;28;20034;-80
2022/03/04 07:22:35;;;;;;;27.37;15.20;;;1.60;99.90;;;;;;4956513;28;20046;-80
2022/03/04 07:25:04;;;;;;;31.53;17.03;;;1.70;99.90;;;;;;4942463;28;20053;-81
2022/03/04 07:27:33;;;;;;;26.67;15.67;;;1.80;99.90;;;;;;4964927;28;20034;-79
2022/03/04 07:30:04;;;;;;;28.30;15.73;;;1.80;99.90;;;;;;4962610;28;20026;-80
2022/03/04 07:32:32;;;;;;;27.27;14.97;;;1.90;99.90;;;;;;4989183;28;20049;-80
2022/03/04 07:34:58;;;;;;;30.90;15.80;;;2.00;99.90;;;;;;4940267;28;20073;-81
2022/03/04 07:37:26;;;;;;;31.17;17.53;;;2.00;99.90;;;;;;4991188;28;20042;-80
2022/03/04 07:39:52;;;;;;;27.67;16.43;;;2.10;99.90;;;;;;4959785;28;20500;-80
2022/03/04 07:42:19;;;;;;;30.87;17.00;;;2.10;99.90;;;;;;4974940;28;20038;-80
2022/03/04 07:44:45;;;;;;;29.00;16.30;;;2.20;99.90;;;;;;4960583;28;20034;-80
2022/03/04 07:47:12;;;;;;;29.90;17.70;;;2.30;99.90;;;;;;4973330;28;20042;-80
2022/03/04 07:49:38;;;;;;;32.63;18.57;;;2.30;99.90;;;;;;4961424;28;20029;-80
2022/03/04 07:52:05;;;;;;;31.70;17.20;;;2.40;99.90;;;;;;4949109;28;20461;-81
2022/03/04 07:54:31;;;;;;;33.93;19.00;;;2.40;99.90;;;;;;4965667;28;20034;-81
2022/03/04 07:56:58;;;;;;;31.87;19.30;;;2.50;99.90;;;;;;4990103;28;20042;-80
2022/03/04 07:59:24;;;;;;;32.73;18.37;;;2.50;99.90;;;;;;4960349;28;20038;-82
2022/03/04 08:01:51;;;;;;;37.40;18.80;;;2.50;99.90;;;;;;4987476;28;20506;-79
2022/03/04 08:04:17;;;;;;;32.53;18.03;;;2.50;99.90;;;;;;4948534;28;20053;-80
2022/03/04 08:06:44;;;;;;;34.03;18.33;;;2.50;99.90;;;;;;4993309;28;20038;-81
2022/03/04 08:09:10;;;;;;;29.37;15.93;;;2.60;99.90;;;;;;4946449;28;20053;-81
2022/03/04 08:11:37;;;;;;;29.67;16.70;;;2.60;99.90;;;;;;4968463;28;20038;-80
2022/03/04 08:14:03;;;;;;;31.73;17.87;;;2.80;99.90;;;;;;4961818;28;20030;-81
2022/03/04 08:16:33;;;;;;;31.27;17.70;;;2.90;99.90;;;;;;4969374;28;20038;-80
2022/03/04 08:19:03;;;;;;;30.30;16.93;;;2.90;99.90;;;;;;4979472;28;20030;-81
2022/03/04 08:21:29;;;;;;;32.47;18.17;;;3.00;99.90;;;;;;4979714;28;20390;-80
2022/03/04 08:23:56;;;;;;;31.63;18.03;;;3.10;99.90;;;;;;4976285;28;20046;-80
2022/03/04 08:26:22;;;;;;;30.00;16.13;;;3.10;99.90;;;;;;4960048;28;20474;-80
2022/03/04 08:28:49;;;;;;;30.33;18.00;;;3.20;99.90;;;;;;4960770;28;21246;-81
2022/03/04 08:31:16;;;;;;;32.13;18.30;;;3.20;99.90;;;;;;4978168;28;20438;-80
2022/03/04 08:33:44;;;;;;;31.80;18.73;;;3.20;99.90;;;;;;4946545;28;20038;-80
2022/03/04 08:36:11;;;;;;;32.23;19.13;;;3.30;99.90;;;;;;4959203;28;20034;-80
2022/03/04 08:38:38;;;;;;;35.53;19.50;;;3.30;99.90;;;;;;4972055;28;20030;-81
2022/03/04 08:41:05;;;;;;;34.47;19.43;;;3.30;99.90;;;;;;4975170;28;20501;-80
2022/03/04 08:43:34;;;;;;;32.70;18.90;;;3.30;99.90;;;;;;4957249;28;20061;-80
2022/03/04 08:46:04;;;;;;;32.63;19.03;;;3.30;99.90;;;;;;4945823;28;20038;-81
2022/03/04 08:48:30;;;;;;;30.43;18.10;;;3.40;99.90;;;;;;4971338;28;20496;-79
2022/03/04 08:50:57;;;;;;;29.47;17.50;;;3.50;99.90;;;;;;4963942;28;20045;-82
2022/03/04 08:53:23;;;;;;;31.33;18.30;;;3.60;99.90;;;;;;4934081;28;20044;-82
2022/03/04 08:55:50;;;;;;;31.37;18.53;;;3.70;99.90;;;;;;4959248;28;20457;-82
2022/03/04 08:58:17;;;;;;;28.33;18.23;;;3.80;99.90;;;;;;4976628;28;20053;-81
2022/03/04 09:00:44;;;;;;;32.20;17.63;;;3.90;99.90;;;;;;4942151;28;20064;-81
2022/03/04 09:03:10;;;;;;;35.07;18.20;;;4.00;99.90;;;;;;4975355;28;20049;-81
2022/03/04 09:05:37;;;;;;;31.13;18.17;;;4.10;99.90;;;;;;4942008;28;20517;-83
2022/03/04 09:08:04;;;;;;;30.83;17.80;;;4.20;99.90;;;;;;4944332;28;20145;-83
2022/03/04 09:10:31;;;;;;;29.93;17.83;;;4.30;99.90;;;;;;4975841;28;20386;-84
2022/03/04 09:12:57;;;;;;;30.30;17.43;;;4.40;99.90;;;;;;4972520;28;20156;-82
2022/03/04 09:15:24;;;;;;;30.60;18.00;;;4.50;99.90;;;;;;4941335;28;20040;-84
2022/03/04 09:17:51;;;;;;;29.60;16.57;;;4.60;99.90;;;;;;4959144;28;20041;-84
2022/03/04 09:20:19;;;;;;;31.23;17.70;;;4.70;99.90;;;;;;4945964;28;20034;-78
2022/03/04 09:22:46;;;;;;;30.87;18.23;;;4.80;99.90;;;;;;4961098;28;20041;-84
2022/03/04 09:25:14;;;;;;;31.53;19.27;;;4.80;99.90;;;;;;4969299;28;20038;-78
2022/03/04 09:27:46;;;;;;;30.23;19.10;;;4.90;99.90;;;;;;4966891;28;20035;-78
2022/03/04 09:30:14;;;;;;;32.78;19.33;;;5.00;99.90;;;;;;4986151;28;20033;-79
2022/03/04 09:32:40;;;;;;;31.40;18.20;;;5.00;99.90;;;;;;4952051;28;20054;-83
2022/03/04 09:35:07;;;;;;;30.57;19.07;;;5.10;99.90;;;;;;4953487;28;20770;-80
2022/03/04 09:37:35;;;;;;;30.23;17.67;;;5.10;99.90;;;;;;4968864;28;20478;-80
2022/03/04 09:40:04;;;;;;;30.73;18.27;;;5.20;99.90;;;;;;4954351;28;20038;-81
2022/03/04 09:42:32;;;;;;;34.00;19.80;;;5.30;99.90;;;;;;4974078;28;20053;-83
2022/03/04 09:45:00;;;;;;;34.07;19.27;;;5.40;99.90;;;;;;4956075;28;20401;-81
2022/03/04 09:47:27;;;;;;;35.47;18.83;;;5.40;99.90;;;;;;4972523;28;20038;-81
2022/03/04 09:49:54;;;;;;;29.27;18.60;;;5.60;99.90;;;;;;4956457;28;20026;-80
2022/03/04 09:52:20;;;;;;;33.90;19.43;;;5.70;99.90;;;;;;4960738;28;20049;-81
2022/03/04 09:54:49;;;;;;;29.63;17.90;;;5.80;99.90;;;;;;4952439;28;20482;-81
2022/03/04 09:57:16;;;;;;;32.37;20.43;;;5.80;99.90;;;;;;4960696;28;20386;-81
2022/03/04 09:59:43;;;;;;;31.30;18.73;;;5.80;99.90;;;;;;4957724;28;20052;-80
2022/03/04 10:02:14;;;;;;;30.77;17.90;;;5.80;99.90;;;;;;4959246;28;20026;-81
2022/03/04 10:04:41;;;;;;;28.27;17.93;;;5.90;99.90;;;;;;4969872;28;20046;-81
2022/03/04 10:07:09;;;;;;;30.40;18.53;;;6.00;99.90;;;;;;4965614;28;20034;-80
2022/03/04 10:09:40;;;;;;;31.20;18.20;;;6.20;99.90;;;;;;4955827;28;20026;-81
2022/03/04 10:12:07;;;;;;;28.17;17.67;;;6.30;99.30;;;;;;4960661;28;20493;-81
2022/03/04 10:14:34;;;;;;;29.57;18.97;;;6.30;99.10;;;;;;4968316;28;20046;-81
2022/03/04 10:17:02;;;;;;;32.53;19.50;;;6.40;99.10;;;;;;4958630;28;20041;-80
2022/03/04 10:19:33;;;;;;;31.60;19.50;;;6.60;99.00;;;;;;4953229;28;20042;-84
2022/03/04 10:22:05;;;;;;;29.70;18.50;;;6.70;98.60;;;;;;4971911;28;20630;-81
2022/03/04 10:24:36;;;;;;;31.13;19.03;;;6.90;98.70;;;;;;4936679;28;20027;-81
2022/03/04 10:27:12;;;;;;;27.77;18.63;;;7.10;99.00;;;;;;4953232;28;20046;-81
2022/03/04 10:29:40;;;;;;;24.40;16.75;;;7.50;98.80;;;;;;4969793;28;20034;-81
2022/03/04 10:32:20;;;;;;;28.35;17.80;;;7.80;99.00;;;;;;4955282;28;20124;-81
2022/03/04 10:34:55;;;;;;;26.30;17.40;;;8.20;99.10;;;;;;4983140;28;20504;-81
2022/03/04 10:37:23;;;;;;;26.42;17.67;;;8.70;98.20;;;;;;4969162;28;20042;-81
2022/03/04 10:40:08;;;;;;;26.55;16.45;;;9.10;96.50;;;;;;4981365;28;20031;-81
2022/03/04 10:42:42;;;;;;;26.50;17.80;;;9.40;95.70;;;;;;4987118;28;20018;-81
2022/03/04 10:45:12;;;;;;;29.77;19.75;;;9.70;95.30;;;;;;4956107;28;20057;-79
2022/03/04 10:47:40;;;;;;;28.58;18.90;;;9.90;93.80;;;;;;4952233;28;20051;-79
2022/03/04 10:50:07;;;;;;;27.10;18.85;;;10.00;91.90;;;;;;4975026;28;20018;-80
2022/03/04 10:52:47;;;;;;;27.08;19.13;;;10.00;91.40;;;;;;4970413;28;20045;-82
2022/03/04 10:55:31;;;;;;;24.50;17.75;;;10.00;91.20;;;;;;4944019;28;20050;-81
2022/03/04 10:57:59;;;;;;;28.42;18.83;;;10.30;91.30;;;;;;4957174;28;20031;-82
2022/03/04 11:00:30;;;;;;;25.58;19.00;;;10.60;89.10;;;;;;4985127;28;20026;-80
2022/03/04 11:02:57;;;;;;;29.60;20.53;;;10.80;88.40;;;;;;4984409;28;20029;-79
2022/03/04 11:05:24;;;;;;;25.48;19.10;;;11.10;86.70;;;;;;4968064;28;20039;-80
2022/03/04 11:07:50;;;;;;;26.38;18.98;;;11.20;85.50;;;;;;4989639;28;20042;-80
2022/03/04 11:10:19;;;;;;;24.73;18.40;;;11.40;84.30;;;;;;4956919;28;21012;-80
2022/03/04 11:12:50;;;;;;;24.17;18.13;;;11.70;83.80;;;;;;4983251;28;20045;-80
2022/03/04 11:15:18;;;;;;;27.70;20.85;;;12.00;82.80;;;;;;4974573;28;20508;-80
2022/03/04 11:17:46;;;;;;;25.48;18.38;;;12.30;80.20;;;;;;4941295;28;20049;-80
2022/03/04 11:20:14;;;;;;;23.92;17.98;;;12.50;78.70;;;;;;4954714;28;20035;-80
2022/03/04 11:22:43;;;;;;;24.75;18.15;;;12.70;77.60;;;;;;4952983;28;20046;-80
2022/03/04 11:25:12;;;;;;;27.40;20.40;;;13.00;76.90;;;;;;4967012;28;20034;-80
2022/03/04 11:27:45;;;;;;;25.52;18.60;;;13.30;74.00;;;;;;4938172;28;20058;-80
2022/03/04 11:30:30;;;;;;;23.20;17.83;;;13.40;73.70;;;;;;4972537;28;20533;-80
2022/03/04 11:33:07;;;;;;;24.35;18.15;;;13.70;72.70;;;;;;4970680;28;20049;-80
2022/03/04 11:35:43;;;;;;;24.92;19.02;;;13.80;71.30;;;;;;4956017;28;20062;-80
2022/03/04 11:38:10;;;;;;;24.73;18.25;;;14.00;70.30;;;;;;4954272;28;20471;-80
2022/03/04 11:40:41;;;;;;;22.23;17.85;;;14.20;70.00;;;;;;4971353;28;20385;-80
2022/03/04 11:43:09;;;;;;;22.58;18.45;;;14.20;68.60;;;;;;4968355;28;20031;-80
2022/03/04 11:45:37;;;;;;;23.55;17.85;;;14.20;67.20;;;;;;4970370;28;20042;-82
2022/03/04 11:48:10;;;;;;;21.98;17.55;;;14.10;67.70;;;;;;4969893;28;21548;-81
2022/03/04 11:50:42;;;;;;;22.35;18.50;;;14.00;67.00;;;;;;4970653;28;20029;-81
2022/03/04 11:53:20;;;;;;;;;;;14.10;66.70;;;;;;4955368;28;20591;-81
2022/03/04 11:56:25;;;;;;;24.92;18.38;;;14.30;65.80;;;;;;4971931;28;19917;-82
2022/03/04 11:58:57;;;;;;;25.40;18.35;;;14.60;64.40;;;;;;4911266;29;20512;-81
2022/03/04 12:01:29;;;;;;;23.60;18.67;;;14.50;63.50;;;;;;4952975;28;20047;-80
2022/03/04 12:04:14;;;;;;;25.02;19.10;;;13.90;62.90;;;;;;4955869;28;20513;-80
2022/03/04 12:06:41;;;;;;;25.50;19.15;;;13.40;64.80;;;;;;4991862;28;20037;-80
2022/03/04 12:09:27;;;;;;;27.77;19.55;;;13.60;64.90;;;;;;4971375;28;20410;-80
2022/03/04 12:12:18;;;;;;;23.80;18.17;;;14.00;63.60;;;;;;4951366;28;20022;-81
2022/03/04 12:14:52;;;;;;;24.33;17.88;;;14.40;63.30;;;;;;4930785;28;20043;-80
2022/03/04 12:17:19;;;;;;;23.77;17.77;;;15.00;62.90;;;;;;4962325;28;20025;-80
2022/03/04 12:19:47;;;;;;;22.15;18.65;;;15.50;62.20;;;;;;4959473;28;20018;-81
2022/03/04 12:22:15;;;;;;;22.65;18.05;;;16.10;60.20;;;;;;4968826;28;20033;-82
2022/03/04 12:25:01;;;;;;;25.30;19.17;;;16.40;57.60;;;;;;4960736;28;20015;-81
2022/03/04 12:27:39;;;;;;;24.10;18.00;;;16.60;56.70;;;;;;4965547;28;21125;-83
2022/03/04 12:30:21;;;;;;;20.60;16.77;;;16.80;56.30;;;;;;4978029;28;20037;-81
2022/03/04 12:32:53;;;;;;;18.05;15.90;;;17.00;55.30;;;;;;4960208;28;20050;-78
2022/03/04 12:35:21;;;;;;;23.35;18.08;;;17.10;55.00;;;;;;4971323;28;20050;-82
2022/03/04 12:37:48;;;;;;;21.13;16.98;;;17.30;54.30;;;;;;4974849;28;21433;-82
2022/03/04 12:40:16;;;;;;;20.50;16.83;;;17.40;54.80;;;;;;4972143;28;20037;-82
2022/03/04 12:42:53;;;;;;;21.73;18.27;;;17.50;52.70;;;;;;4971739;28;20035;-78
2022/03/04 12:45:20;;;;;;;23.90;17.80;;;17.50;52.20;;;;;;4954220;28;20034;-82
2022/03/04 12:47:47;;;;;;;22.48;16.35;;;17.60;51.80;;;;;;4959291;28;20050;-81